Time;durP1;ratioP1;P1;durP2;ratioP2;P2;SDS_P1;SDS_P2;PMS_P1;PMS_P2;Temp;Humidity;BMP_temperature;BMP_pressure;BME280_temperature;BME280_humidity;BME280_pressure;Samples;Min_cycle;Max_cycle;Signal;HPM_P1;HPM_P2
2023/07/21 00:01:10;;;;;;;15.30;5.35;;;;;;;;;;6280193;22;20011;-68
2023/07/21 00:03:38;;;;;;;18.05;5.53;;;;;;;;;;6306968;22;20003;-67
2023/07/21 00:06:06;;;;;;;11.45;5.95;;;;;;;;;;6307075;22;20015;-67
2023/07/21 00:08:35;;;;;;;18.52;6.45;;;;;;;;;;6307314;22;20092;-68
2023/07/21 00:11:01;;;;;;;14.52;5.45;;;;;;;;;;6308121;22;20015;-67
2023/07/21 00:13:27;;;;;;;17.83;6.93;;;;;;;;;;6312257;22;20432;-67
2023/07/21 00:15:54;;;;;;;18.00;5.65;;;;;;;;;;6310471;22;20007;-69
2023/07/21 00:18:21;;;;;;;14.32;6.10;;;;;;;;;;6280125;22;20065;-67
2023/07/21 00:20:47;;;;;;;16.27;6.88;;;;;;;;;;6307276;22;20458;-69
2023/07/21 00:23:14;;;;;;;14.50;6.68;;;;;;;;;;6304925;22;20011;-68
2023/07/21 00:25:40;;;;;;;16.30;6.57;;;;;;;;;;6307350;22;20018;-68
2023/07/21 00:28:06;;;;;;;11.40;5.88;;;;;;;;;;6309676;22;20325;-68
2023/07/21 00:30:33;;;;;;;18.30;7.13;;;;;;;;;;6305358;22;20011;-68
2023/07/21 00:32:59;;;;;;;12.20;7.38;;;;;;;;;;6279375;22;20114;-67
2023/07/21 00:35:26;;;;;;;16.15;7.22;;;;;;;;;;6149173;23;20404;-67
2023/07/21 00:37:51;;;;;;;11.50;6.85;;;;;;;;;;6146449;23;20077;-67
2023/07/21 00:40:20;;;;;;;14.25;7.22;;;;;;;;;;6122269;23;20033;-68
2023/07/21 00:42:46;;;;;;;13.45;6.38;;;;;;;;;;6147271;22;20005;-66
2023/07/21 00:45:14;;;;;;;15.02;6.25;;;;;;;;;;6146529;23;20013;-68
2023/07/21 00:47:40;;;;;;;12.88;6.35;;;;;;;;;;6146697;23;20012;-68
2023/07/21 00:50:09;;;;;;;16.05;6.88;;;;;;;;;;6146547;23;20103;-67
2023/07/21 00:52:36;;;;;;;16.55;7.13;;;;;;;;;;6145861;23;20009;-68
2023/07/21 00:55:03;;;;;;;13.00;6.45;;;;;;;;;;6147238;23;20001;-68
2023/07/21 00:57:29;;;;;;;16.48;7.05;;;;;;;;;;6148091;23;20396;-68
2023/07/21 00:59:57;;;;;;;24.20;7.13;;;;;;;;;;6304010;22;20014;-68
2023/07/21 01:02:23;;;;;;;11.32;5.90;;;;;;;;;;6148312;22;20085;-69
2023/07/21 01:04:49;;;;;;;12.80;6.00;;;;;;;;;;6277244;22;20011;-67
2023/07/21 01:07:15;;;;;;;22.40;6.88;;;;;;;;;;6305215;22;20140;-68
2023/07/21 01:09:43;;;;;;;16.48;6.53;;;;;;;;;;6305580;22;20007;-68
2023/07/21 01:12:09;;;;;;;17.17;6.53;;;;;;;;;;6302189;22;20089;-68
2023/07/21 01:14:36;;;;;;;21.25;6.72;;;;;;;;;;6304184;22;20011;-68
2023/07/21 01:17:02;;;;;;;17.50;7.30;;;;;;;;;;6276640;22;20110;-67
2023/07/21 01:19:29;;;;;;;15.57;6.50;;;;;;;;;;6302754;22;20056;-67
2023/07/21 01:22:10;;;;;;;15.57;6.68;;;;;;;;;;6276755;22;20041;-68
2023/07/21 01:24:52;;;;;;;19.55;6.85;;;;;;;;;;6148438;22;20597;-68
2023/07/21 01:27:21;;;;;;;14.23;6.60;;;;;;;;;;6146339;23;20020;-68
2023/07/21 01:29:49;;;;;;;16.23;6.93;;;;;;;;;;6147785;23;20344;-67
2023/07/21 01:32:19;;;;;;;14.65;6.22;;;;;;;;;;6146253;23;20029;-67
2023/07/21 01:34:45;;;;;;;17.45;6.85;;;;;;;;;;6146819;23;20351;-68
2023/07/21 01:37:13;;;;;;;16.80;7.18;;;;;;;;;;6122643;23;20056;-68
2023/07/21 01:39:40;;;;;;;18.15;7.28;;;;;;;;;;6147492;23;20037;-68
2023/07/21 01:42:07;;;;;;;15.50;7.18;;;;;;;;;;6302741;22;20533;-68
2023/07/21 01:44:34;;;;;;;17.00;7.05;;;;;;;;;;6304540;22;20007;-68
2023/07/21 01:47:00;;;;;;;21.80;7.13;;;;;;;;;;6303097;22;20074;-68
2023/07/21 01:49:25;;;;;;;15.25;7.25;;;;;;;;;;6277324;22;20081;-68
2023/07/21 01:51:56;;;;;;;15.68;6.88;;;;;;;;;;6276915;22;20046;-68
2023/07/21 01:54:39;;;;;;;18.73;6.70;;;;;;;;;;6304105;22;20011;-67
2023/07/21 01:57:13;;;;;;;15.00;6.93;;;;;;;;;;6304594;22;20019;-68
2023/07/21 01:59:45;;;;;;;21.08;7.75;;;;;;;;;;6251897;22;20018;-68
2023/07/21 02:02:13;;;;;;;14.87;7.97;;;;;;;;;;6301442;22;20019;-67
2023/07/21 02:04:40;;;;;;;17.25;7.60;;;;;;;;;;6225097;22;20018;-67
2023/07/21 02:07:05;;;;;;;17.05;8.02;;;;;;;;;;6146106;22;20020;-67
2023/07/21 02:09:31;;;;;;;16.13;7.15;;;;;;;;;;6147820;23;20021;-68
2023/07/21 02:11:58;;;;;;;20.67;7.88;;;;;;;;;;6302088;22;20007;-68
2023/07/21 02:14:45;;;;;;;27.75;7.95;;;;;;;;;;6302912;22;20027;-66
2023/07/21 02:17:11;;;;;;;22.55;7.38;;;;;;;;;;6277082;22;20021;-68
2023/07/21 02:19:37;;;;;;;19.23;7.47;;;;;;;;;;6306199;22;20077;-68
2023/07/21 02:22:05;;;;;;;16.02;7.15;;;;;;;;;;6304484;22;20027;-68
2023/07/21 02:24:31;;;;;;;19.60;7.15;;;;;;;;;;6279199;22;19999;-68
2023/07/21 02:26:59;;;;;;;15.70;6.63;;;;;;;;;;6252465;22;20009;-67
2023/07/21 02:29:28;;;;;;;16.42;6.65;;;;;;;;;;6305937;22;20004;-68
2023/07/21 02:31:55;;;;;;;19.08;6.95;;;;;;;;;;6251116;22;20017;-68
2023/07/21 02:34:20;;;;;;;21.58;6.85;;;;;;;;;;6149270;22;20359;-68
2023/07/21 02:36:47;;;;;;;14.73;6.15;;;;;;;;;;6226974;22;20013;-67
2023/07/21 02:39:13;;;;;;;14.73;6.32;;;;;;;;;;6253002;22;20343;-67
2023/07/21 02:41:39;;;;;;;12.82;5.72;;;;;;;;;;6149655;22;20037;-68
2023/07/21 02:44:05;;;;;;;24.25;6.63;;;;;;;;;;6304716;22;20007;-69
2023/07/21 02:46:31;;;;;;;16.92;6.55;;;;;;;;;;6278307;22;20090;-68
2023/07/21 02:48:56;;;;;;;19.25;7.28;;;;;;;;;;6227625;22;20029;-68
2023/07/21 02:51:22;;;;;;;16.67;6.25;;;;;;;;;;6149677;22;20029;-68
2023/07/21 02:53:48;;;;;;;13.90;6.80;;;;;;;;;;6123346;23;20013;-68
2023/07/21 02:56:15;;;;;;;15.00;6.97;;;;;;;;;;6277097;22;20076;-67
2023/07/21 02:59:00;;;;;;;16.27;5.72;;;;;;;;;;6169656;23;20104;-68
2023/07/21 03:01:26;;;;;;;14.88;6.53;;;;;;;;;;6148713;22;20051;-68
2023/07/21 03:03:55;;;;;;;19.17;6.50;;;;;;;;;;6147509;23;20435;-68
2023/07/21 03:06:21;;;;;;;13.02;6.40;;;;;;;;;;6148354;23;20036;-68
2023/07/21 03:08:47;;;;;;;20.52;6.78;;;;;;;;;;6149290;23;20016;-68
2023/07/21 03:11:17;;;;;;;14.45;6.47;;;;;;;;;;6149328;23;20014;-69
2023/07/21 03:14:03;;;;;;;21.25;8.38;;;;;;;;;;6155909;22;20013;-68
2023/07/21 03:16:31;;;;;;;22.13;7.30;;;;;;;;;;6280130;22;20010;-68
2023/07/21 03:18:57;;;;;;;14.38;6.35;;;;;;;;;;6254607;22;20158;-67
2023/07/21 03:21:26;;;;;;;21.30;7.90;;;;;;;;;;6279589;22;20022;-68
2023/07/21 03:23:51;;;;;;;27.10;8.32;;;;;;;;;;6148492;23;20009;-68
2023/07/21 03:26:22;;;;;;;22.27;8.18;;;;;;;;;;6279815;22;20015;-67
2023/07/21 03:28:48;;;;;;;17.08;6.85;;;;;;;;;;6253691;22;20017;-68
2023/07/21 03:31:14;;;;;;;17.35;8.82;;;;;;;;;;6279945;22;20440;-68
2023/07/21 03:33:51;;;;;;;17.88;6.80;;;;;;;;;;6173318;22;20071;-68
2023/07/21 03:36:22;;;;;;;29.35;7.78;;;;;;;;;;6240861;22;20094;-68
2023/07/21 03:38:47;;;;;;;15.48;7.53;;;;;;;;;;6253631;22;20045;-66
2023/07/21 03:41:13;;;;;;;17.15;7.20;;;;;;;;;;6253745;22;20006;-68
2023/07/21 03:43:41;;;;;;;22.85;7.68;;;;;;;;;;6278645;22;20042;-68
2023/07/21 03:46:07;;;;;;;25.17;8.13;;;;;;;;;;6253160;22;20012;-68
2023/07/21 03:49:02;;;;;;;19.95;7.53;;;;;;;;;;6264610;22;20064;-68
2023/07/21 03:51:29;;;;;;;19.33;7.20;;;;;;;;;;6278755;22;20015;-68
2023/07/21 03:53:58;;;;;;;15.82;6.78;;;;;;;;;;6278809;22;20007;-69
2023/07/21 03:56:25;;;;;;;22.92;7.60;;;;;;;;;;6253230;22;20445;-68
2023/07/21 03:58:53;;;;;;;15.95;6.40;;;;;;;;;;6252982;22;20012;-68
2023/07/21 04:01:19;;;;;;;15.73;6.75;;;;;;;;;;6306717;22;20090;-68
2023/07/21 04:03:47;;;;;;;17.30;6.80;;;;;;;;;;6306908;22;20034;-68
2023/07/21 04:06:14;;;;;;;14.30;6.90;;;;;;;;;;6253763;22;20016;-68
2023/07/21 04:08:41;;;;;;;12.80;5.43;;;;;;;;;;6279537;22;20009;-68
2023/07/21 04:11:08;;;;;;;10.35;6.22;;;;;;;;;;6279311;22;20011;-67
2023/07/21 04:13:34;;;;;;;14.75;6.15;;;;;;;;;;6306180;22;20441;-68
2023/07/21 04:15:59;;;;;;;11.07;5.78;;;;;;;;;;6253804;22;20005;-68
2023/07/21 04:18:25;;;;;;;13.18;5.68;;;;;;;;;;6279156;22;20007;-68
2023/07/21 04:20:51;;;;;;;17.40;6.70;;;;;;;;;;6304914;22;20015;-68
2023/07/21 04:23:18;;;;;;;9.82;6.60;;;;;;;;;;6279066;22;20322;-67
2023/07/21 04:25:45;;;;;;;9.30;5.45;;;;;;;;;;6253228;22;20009;-67
2023/07/21 04:28:11;;;;;;;15.73;6.65;;;;;;;;;;6253181;22;20017;-67
2023/07/21 04:30:37;;;;;;;15.07;6.50;;;;;;;;;;6253555;22;20012;-67
2023/07/21 04:33:03;;;;;;;15.00;7.00;;;;;;;;;;6278836;22;20453;-68
2023/07/21 04:35:31;;;;;;;12.18;6.65;;;;;;;;;;6279141;22;20018;-68
2023/07/21 04:37:59;;;;;;;12.80;6.90;;;;;;;;;;6279127;22;20073;-68
2023/07/21 04:40:29;;;;;;;19.15;7.28;;;;;;;;;;6253127;22;20460;-67
2023/07/21 04:42:55;;;;;;;15.90;7.15;;;;;;;;;;6278729;22;20011;-66
2023/07/21 04:45:21;;;;;;;15.55;6.72;;;;;;;;;;6306506;22;20061;-68
2023/07/21 04:48:16;;;;;;;11.38;6.55;;;;;;;;;;6285895;22;20011;-68
2023/07/21 04:50:50;;;;;;;12.07;6.57;;;;;;;;;;6279509;22;20011;-66
2023/07/21 04:53:16;;;;;;;11.85;6.80;;;;;;;;;;6278916;22;20010;-68
2023/07/21 04:55:42;;;;;;;18.88;6.70;;;;;;;;;;6227678;22;20351;-67
2023/07/21 04:58:09;;;;;;;10.40;6.22;;;;;;;;;;6253714;22;20018;-66
2023/07/21 05:00:35;;;;;;;11.18;6.57;;;;;;;;;;6253098;22;20017;-67
2023/07/21 05:03:01;;;;;;;11.82;6.32;;;;;;;;;;6148253;23;20022;-67
2023/07/21 05:05:28;;;;;;;19.95;6.25;;;;;;;;;;6148421;23;20020;-66
2023/07/21 05:07:56;;;;;;;11.82;6.55;;;;;;;;;;6148641;23;20443;-67
2023/07/21 05:10:24;;;;;;;16.42;7.28;;;;;;;;;;6278665;22;20017;-67
2023/07/21 05:12:50;;;;;;;16.00;7.38;;;;;;;;;;6278859;22;20003;-67
2023/07/21 05:15:35;;;;;;;17.30;7.78;;;;;;;;;;6306303;22;20081;-67
2023/07/21 05:18:15;;;;;;;23.45;7.97;;;;;;;;;;6148438;23;20513;-67
2023/07/21 05:21:10;;;;;;;20.25;7.13;;;;;;;;;;6169880;23;20455;-67
2023/07/21 05:24:02;;;;;;;20.50;6.75;;;;;;;;;;6155641;22;20025;-67
2023/07/21 05:26:30;;;;;;;16.83;6.07;;;;;;;;;;6278966;22;20077;-67
2023/07/21 05:28:57;;;;;;;22.30;7.00;;;;;;;;;;6278167;22;20007;-67
2023/07/21 05:31:38;;;;;;;16.83;6.57;;;;;;;;;;6278464;22;20015;-67
2023/07/21 05:34:18;;;;;;;18.80;6.50;;;;;;;;;;6303708;22;20057;-67
2023/07/21 05:36:45;;;;;;;15.60;6.43;;;;;;;;;;6253167;22;20145;-67
2023/07/21 05:39:11;;;;;;;12.38;6.15;;;;;;;;;;6278075;22;20041;-66
2023/07/21 05:41:37;;;;;;;17.05;6.75;;;;;;;;;;6278216;22;20022;-68
2023/07/21 05:44:02;;;;;;;20.50;6.55;;;;;;;;;;6150084;22;20084;-65
2023/07/21 05:46:28;;;;;;;15.15;5.93;;;;;;;;;;6278413;22;20007;-67
2023/07/21 05:49:00;;;;;;;19.25;6.78;;;;;;;;;;6252467;22;20029;-66
2023/07/21 05:51:26;;;;;;;14.13;6.80;;;;;;;;;;6149018;22;20173;-66
2023/07/21 05:53:59;;;;;;;16.55;6.50;;;;;;;;;;6277706;22;20041;-66
2023/07/21 05:56:28;;;;;;;9.63;5.82;;;;;;;;;;6252350;22;20013;-66
2023/07/21 05:59:00;;;;;;;12.52;6.10;;;;;;;;;;6277997;22;20025;-66
2023/07/21 06:01:30;;;;;;;9.65;5.25;;;;;;;;;;6277696;22;20325;-66
2023/07/21 06:03:56;;;;;;;11.20;5.65;;;;;;;;;;6303549;22;20015;-66
2023/07/21 06:06:23;;;;;;;14.27;6.15;;;;;;;;;;6303044;22;20007;-66
2023/07/21 06:09:11;;;;;;;11.48;6.00;;;;;;;;;;6149479;22;20029;-67
2023/07/21 06:12:04;;;;;;;17.70;5.57;;;;;;;;;;6224356;22;20475;-67
2023/07/21 06:14:45;;;;;;;14.32;6.30;;;;;;;;;;6238571;22;20006;-66
2023/07/21 06:17:39;;;;;;;11.25;5.50;;;;;;;;;;6153910;22;20021;-66
2023/07/21 06:20:06;;;;;;;11.68;6.10;;;;;;;;;;6147627;23;20021;-66
2023/07/21 06:22:32;;;;;;;11.45;5.47;;;;;;;;;;6147279;23;20010;-65
2023/07/21 06:24:58;;;;;;;9.13;5.88;;;;;;;;;;6303420;22;20011;-65
2023/07/21 06:27:24;;;;;;;15.32;6.50;;;;;;;;;;6251882;22;20010;-66
2023/07/21 06:29:50;;;;;;;8.75;5.00;;;;;;;;;;6251971;22;20013;-66
2023/07/21 06:32:20;;;;;;;10.40;5.55;;;;;;;;;;6303489;22;20014;-66
2023/07/21 06:35:12;;;;;;;7.20;5.45;;;;;;;;;;6304663;22;20014;-67
2023/07/21 06:37:55;;;;;;;9.38;5.43;;;;;;;;;;6149690;22;20041;-67
2023/07/21 06:40:34;;;;;;;10.52;5.43;;;;;;;;;;6278306;22;20007;-66
2023/07/21 06:43:18;;;;;;;8.68;5.40;;;;;;;;;;6150191;23;20032;-67
2023/07/21 06:45:59;;;;;;;7.28;5.43;;;;;;;;;;6280216;22;20007;-66
2023/07/21 06:48:43;;;;;;;9.70;5.63;;;;;;;;;;6150847;23;20086;-66
2023/07/21 06:51:21;;;;;;;10.80;5.63;;;;;;;;;;6254259;22;20013;-66
2023/07/21 06:53:47;;;;;;;8.95;5.40;;;;;;;;;;6279020;22;20350;-66
2023/07/21 06:56:13;;;;;;;10.43;5.45;;;;;;;;;;6279481;22;20026;-67
2023/07/21 06:58:41;;;;;;;10.85;5.70;;;;;;;;;;6253095;22;20016;-66
2023/07/21 07:01:09;;;;;;;12.48;5.78;;;;;;;;;;6148754;23;20351;-66
2023/07/21 07:03:35;;;;;;;8.90;5.10;;;;;;;;;;6279409;22;20021;-67
2023/07/21 07:06:00;;;;;;;6.93;5.28;;;;;;;;;;6150302;23;20005;-66
2023/07/21 07:08:26;;;;;;;8.02;5.30;;;;;;;;;;6150427;22;20017;-67
2023/07/21 07:10:52;;;;;;;12.38;5.47;;;;;;;;;;6123980;23;20081;-66
2023/07/21 07:13:18;;;;;;;13.85;5.60;;;;;;;;;;6278776;22;20115;-67
2023/07/21 07:15:49;;;;;;;9.18;5.57;;;;;;;;;;6149990;23;20031;-67
2023/07/21 07:18:15;;;;;;;8.30;4.90;;;;;;;;;;6148478;23;20401;-67
2023/07/21 07:20:50;;;;;;;8.95;5.90;;;;;;;;;;6150167;22;20016;-66
2023/07/21 07:23:18;;;;;;;8.35;5.25;;;;;;;;;;6150021;23;20010;-67
2023/07/21 07:25:48;;;;;;;9.57;5.18;;;;;;;;;;6123650;23;20012;-66
2023/07/21 07:28:16;;;;;;;14.45;5.38;;;;;;;;;;6306763;22;20035;-67
2023/07/21 07:30:41;;;;;;;12.02;5.50;;;;;;;;;;6253413;22;20284;-66
2023/07/21 07:33:07;;;;;;;9.90;5.25;;;;;;;;;;6172519;23;20014;-67
2023/07/21 07:35:33;;;;;;;10.45;5.53;;;;;;;;;;6149908;23;20085;-66
2023/07/21 07:37:59;;;;;;;7.40;5.43;;;;;;;;;;6150192;22;20037;-66
2023/07/21 07:40:25;;;;;;;9.70;5.50;;;;;;;;;;6150205;23;20013;-67
2023/07/21 07:42:51;;;;;;;9.63;5.55;;;;;;;;;;6150262;23;20021;-67
2023/07/21 07:45:17;;;;;;;11.35;5.43;;;;;;;;;;6307138;22;20025;-67
2023/07/21 07:47:44;;;;;;;16.70;6.10;;;;;;;;;;6150183;23;20077;-67
2023/07/21 07:50:11;;;;;;;7.68;5.07;;;;;;;;;;6305303;22;20003;-66
2023/07/21 07:52:39;;;;;;;12.02;5.90;;;;;;;;;;6149994;22;20028;-67
2023/07/21 07:55:06;;;;;;;13.85;5.80;;;;;;;;;;6150131;23;20054;-67
2023/07/21 07:57:31;;;;;;;10.50;4.90;;;;;;;;;;6306749;22;20278;-67
2023/07/21 07:59:57;;;;;;;10.05;5.80;;;;;;;;;;6306578;22;20010;-67
2023/07/21 08:02:23;;;;;;;11.85;5.95;;;;;;;;;;6150577;22;20156;-66
2023/07/21 08:04:49;;;;;;;12.38;5.68;;;;;;;;;;6150234;22;20071;-66
2023/07/21 08:07:16;;;;;;;11.02;5.50;;;;;;;;;;6307002;22;20019;-67
2023/07/21 08:09:41;;;;;;;8.15;5.40;;;;;;;;;;6150359;22;20008;-68
2023/07/21 08:12:08;;;;;;;10.07;5.63;;;;;;;;;;6149270;22;20423;-68
2023/07/21 08:14:33;;;;;;;8.00;5.40;;;;;;;;;;6149815;22;20001;-69
2023/07/21 08:17:02;;;;;;;10.65;5.57;;;;;;;;;;6149909;22;20053;-66
2023/07/21 08:19:31;;;;;;;11.35;5.50;;;;;;;;;;6306602;22;20087;-67
2023/07/21 08:22:01;;;;;;;8.18;5.35;;;;;;;;;;6306516;22;20039;-67
2023/07/21 08:24:27;;;;;;;11.82;5.43;;;;;;;;;;6306347;22;20449;-67
2023/07/21 08:26:53;;;;;;;12.18;5.40;;;;;;;;;;6305951;22;20038;-67
2023/07/21 08:29:19;;;;;;;10.13;5.10;;;;;;;;;;6149903;22;20336;-67
2023/07/21 08:31:44;;;;;;;8.82;4.72;;;;;;;;;;6306470;22;20110;-67
2023/07/21 08:34:10;;;;;;;9.75;5.10;;;;;;;;;;6149767;22;20084;-67
2023/07/21 08:36:36;;;;;;;11.18;5.35;;;;;;;;;;6149921;22;20016;-68
2023/07/21 08:39:02;;;;;;;11.63;5.00;;;;;;;;;;6306368;22;20082;-67
2023/07/21 08:41:27;;;;;;;10.75;5.68;;;;;;;;;;6150148;22;20013;-67
2023/07/21 08:43:55;;;;;;;13.60;5.43;;;;;;;;;;6305749;22;20011;-66
2023/07/21 08:46:22;;;;;;;10.70;5.20;;;;;;;;;;6278474;22;20074;-67
2023/07/21 08:48:50;;;;;;;11.68;5.32;;;;;;;;;;6306124;22;20033;-67
2023/07/21 08:51:15;;;;;;;8.75;5.22;;;;;;;;;;6147812;22;20043;-67
2023/07/21 08:53:41;;;;;;;9.02;5.32;;;;;;;;;;6305428;22;20007;-67
2023/07/21 08:56:09;;;;;;;10.43;5.25;;;;;;;;;;6306499;22;19995;-68
2023/07/21 08:58:35;;;;;;;8.52;4.93;;;;;;;;;;6149503;22;20010;-66
2023/07/21 09:01:04;;;;;;;7.93;4.45;;;;;;;;;;6278832;22;20007;-66
2023/07/21 09:03:30;;;;;;;9.70;4.35;;;;;;;;;;6251484;22;20013;-67
2023/07/21 09:05:59;;;;;;;7.45;4.28;;;;;;;;;;6150085;22;20043;-66
2023/07/21 09:08:31;;;;;;;9.07;4.32;;;;;;;;;;6149976;23;20013;-66
2023/07/21 09:10:59;;;;;;;8.20;4.75;;;;;;;;;;6150229;22;20010;-67
2023/07/21 09:13:28;;;;;;;8.30;4.95;;;;;;;;;;6149784;23;20079;-67
2023/07/21 09:15:55;;;;;;;9.45;5.20;;;;;;;;;;6148406;23;20083;-66
2023/07/21 09:18:26;;;;;;;10.30;4.50;;;;;;;;;;6149837;23;20426;-67
2023/07/21 09:20:52;;;;;;;8.80;5.15;;;;;;;;;;6149842;23;20014;-67
2023/07/21 09:23:19;;;;;;;10.02;4.35;;;;;;;;;;6149981;23;20084;-67
2023/07/21 09:25:56;;;;;;;12.02;5.10;;;;;;;;;;6150002;22;20025;-66
2023/07/21 09:28:43;;;;;;;6.20;4.60;;;;;;;;;;6150156;22;20014;-67
2023/07/21 09:31:09;;;;;;;6.57;4.32;;;;;;;;;;6149727;23;20017;-66
2023/07/21 09:33:38;;;;;;;10.90;5.20;;;;;;;;;;6149845;23;20312;-67
2023/07/21 09:36:09;;;;;;;8.18;4.45;;;;;;;;;;6278480;22;20011;-67
2023/07/21 09:38:40;;;;;;;8.50;4.18;;;;;;;;;;6305157;22;20094;-67
2023/07/21 09:41:22;;;;;;;12.43;4.47;;;;;;;;;;6305683;22;20030;-67
2023/07/21 09:43:48;;;;;;;8.32;4.40;;;;;;;;;;6306934;22;20027;-67
2023/07/21 09:46:14;;;;;;;13.32;5.50;;;;;;;;;;6306169;22;20049;-67
2023/07/21 09:48:41;;;;;;;9.32;4.22;;;;;;;;;;6306066;22;20003;-66
2023/07/21 09:51:07;;;;;;;8.40;4.40;;;;;;;;;;6305643;22;20031;-67
2023/07/21 09:53:41;;;;;;;9.05;4.65;;;;;;;;;;6305713;22;20014;-67
2023/07/21 09:56:08;;;;;;;14.00;4.85;;;;;;;;;;6305298;22;20042;-67
2023/07/21 09:58:38;;;;;;;9.13;4.88;;;;;;;;;;6305479;22;20006;-67
2023/07/21 10:01:05;;;;;;;11.98;4.53;;;;;;;;;;6305186;22;20011;-67
2023/07/21 10:03:34;;;;;;;6.38;4.50;;;;;;;;;;6149327;22;20336;-69
2023/07/21 10:06:01;;;;;;;8.60;5.00;;;;;;;;;;6305728;22;20086;-68
2023/07/21 10:08:28;;;;;;;10.80;4.75;;;;;;;;;;6305242;22;20104;-68
2023/07/21 10:10:59;;;;;;;10.30;4.63;;;;;;;;;;6306170;22;20294;-68
2023/07/21 10:13:30;;;;;;;6.97;4.47;;;;;;;;;;6305369;22;20011;-68
2023/07/21 10:16:06;;;;;;;12.73;4.82;;;;;;;;;;6278480;22;20007;-66
2023/07/21 10:18:32;;;;;;;12.80;4.57;;;;;;;;;;6305519;22;20010;-67
2023/07/21 10:20:58;;;;;;;11.27;5.28;;;;;;;;;;6304614;22;19999;-66
2023/07/21 10:23:34;;;;;;;12.00;5.20;;;;;;;;;;6303900;22;20015;-67
2023/07/21 10:26:11;;;;;;;6.55;4.63;;;;;;;;;;6304507;22;20019;-67
2023/07/21 10:28:44;;;;;;;9.57;5.07;;;;;;;;;;6306263;22;20014;-67
2023/07/21 10:31:29;;;;;;;13.00;5.32;;;;;;;;;;6305633;22;20453;-68
2023/07/21 10:34:05;;;;;;;7.60;4.40;;;;;;;;;;6305577;22;20015;-66
2023/07/21 10:36:52;;;;;;;9.98;4.93;;;;;;;;;;6150030;22;20006;-67
2023/07/21 10:39:36;;;;;;;14.82;5.00;;;;;;;;;;6149658;23;20009;-68
2023/07/21 10:42:06;;;;;;;9.95;5.30;;;;;;;;;;6149584;22;20063;-66
2023/07/21 10:44:33;;;;;;;8.27;4.82;;;;;;;;;;6304256;22;20015;-67
2023/07/21 10:46:59;;;;;;;10.80;4.90;;;;;;;;;;6149809;23;20005;-67
2023/07/21 10:49:25;;;;;;;8.02;4.60;;;;;;;;;;6149895;23;20112;-66
2023/07/21 10:51:50;;;;;;;8.35;4.38;;;;;;;;;;6305599;22;20056;-67
2023/07/21 10:54:17;;;;;;;13.15;5.10;;;;;;;;;;6149966;22;20013;-66
2023/07/21 10:56:47;;;;;;;10.70;4.68;;;;;;;;;;6150494;22;20006;-67
2023/07/21 10:59:15;;;;;;;13.35;5.25;;;;;;;;;;6149486;22;20009;-67
2023/07/21 11:01:53;;;;;;;10.98;4.88;;;;;;;;;;6149097;23;20013;-66
2023/07/21 11:04:21;;;;;;;8.93;4.32;;;;;;;;;;6305410;22;20338;-68
2023/07/21 11:06:50;;;;;;;10.88;4.90;;;;;;;;;;6305876;22;20003;-68
2023/07/21 11:09:17;;;;;;;8.75;4.47;;;;;;;;;;6305910;22;20034;-67
2023/07/21 11:11:46;;;;;;;6.95;4.57;;;;;;;;;;6278405;22;20512;-68
2023/07/21 11:14:17;;;;;;;12.18;4.65;;;;;;;;;;6278329;22;20523;-68
2023/07/21 11:16:44;;;;;;;16.05;4.90;;;;;;;;;;6150113;22;20037;-67
2023/07/21 11:19:10;;;;;;;11.38;5.25;;;;;;;;;;6149581;23;20482;-68
2023/07/21 11:21:37;;;;;;;7.97;4.95;;;;;;;;;;6305665;22;20065;-68
2023/07/21 11:24:04;;;;;;;9.57;4.88;;;;;;;;;;6305573;22;20393;-68
2023/07/21 11:26:30;;;;;;;9.05;5.13;;;;;;;;;;6305732;22;20014;-68
2023/07/21 11:29:01;;;;;;;14.10;4.70;;;;;;;;;;6280528;22;20022;-68
2023/07/21 11:31:31;;;;;;;7.18;4.13;;;;;;;;;;6308103;22;20132;-68
2023/07/21 11:33:57;;;;;;;9.60;4.88;;;;;;;;;;6150933;22;20550;-67
2023/07/21 11:36:23;;;;;;;8.10;4.65;;;;;;;;;;6307629;22;20009;-68
2023/07/21 11:39:07;;;;;;;11.05;4.38;;;;;;;;;;6307436;22;20007;-66
2023/07/21 11:41:41;;;;;;;11.25;4.75;;;;;;;;;;6307841;22;20014;-66
2023/07/21 11:44:16;;;;;;;7.60;4.20;;;;;;;;;;6307612;22;20033;-66
2023/07/21 11:46:42;;;;;;;8.77;4.55;;;;;;;;;;6305943;22;20015;-68
2023/07/21 11:49:14;;;;;;;7.43;4.82;;;;;;;;;;6307859;22;20010;-67
2023/07/21 11:51:46;;;;;;;14.70;4.95;;;;;;;;;;6307876;22;20046;-67
2023/07/21 11:54:22;;;;;;;;;;;;;;;;;;6308307;22;20018;-68
2023/07/21 11:56:49;;;;;;;9.90;4.70;;;;;;;;;;6307901;22;19990;-67
2023/07/21 11:59:16;;;;;;;9.77;4.70;;;;;;;;;;6307278;22;20007;-68
2023/07/21 12:01:42;;;;;;;8.40;4.80;;;;;;;;;;6307346;22;20069;-67
2023/07/21 12:04:09;;;;;;;13.35;5.65;;;;;;;;;;6307554;22;20011;-68
2023/07/21 12:06:36;;;;;;;12.43;7.35;;;;;;;;;;6307626;22;20094;-67
2023/07/21 12:09:05;;;;;;;11.57;5.63;;;;;;;;;;6307627;22;20003;-67
2023/07/21 12:11:35;;;;;;;11.38;7.15;;;;;;;;;;6306878;22;20429;-67
2023/07/21 12:14:02;;;;;;;12.50;4.70;;;;;;;;;;6307539;22;20015;-68
2023/07/21 12:16:29;;;;;;;11.40;5.18;;;;;;;;;;6254745;22;20001;-68
2023/07/21 12:18:57;;;;;;;9.27;4.72;;;;;;;;;;6307173;22;20015;-68
2023/07/21 12:21:24;;;;;;;13.98;4.50;;;;;;;;;;6307743;22;20010;-66
2023/07/21 12:23:50;;;;;;;8.25;4.78;;;;;;;;;;6307855;22;20057;-66
2023/07/21 12:26:17;;;;;;;10.93;5.13;;;;;;;;;;6306978;22;20313;-67
2023/07/21 12:28:44;;;;;;;11.73;5.05;;;;;;;;;;6307501;22;20011;-66
2023/07/21 12:31:11;;;;;;;9.20;4.90;;;;;;;;;;6150020;22;20008;-67
2023/07/21 12:33:39;;;;;;;10.35;5.10;;;;;;;;;;6149911;22;20013;-66
2023/07/21 12:36:05;;;;;;;9.68;4.90;;;;;;;;;;6307060;22;20003;-68
2023/07/21 12:38:31;;;;;;;10.63;4.93;;;;;;;;;;6150378;22;20063;-68
2023/07/21 12:40:57;;;;;;;9.05;4.88;;;;;;;;;;6150530;23;20005;-67
2023/07/21 12:43:23;;;;;;;8.73;4.80;;;;;;;;;;6150078;22;20321;-66
2023/07/21 12:45:49;;;;;;;9.27;4.32;;;;;;;;;;6150218;23;20382;-66
2023/07/21 12:48:15;;;;;;;9.98;5.25;;;;;;;;;;6307193;22;20463;-66
2023/07/21 12:50:41;;;;;;;9.55;4.78;;;;;;;;;;6306847;22;20007;-67
2023/07/21 12:53:07;;;;;;;11.50;4.85;;;;;;;;;;6306926;22;20011;-67
2023/07/21 12:55:33;;;;;;;10.05;5.25;;;;;;;;;;6306443;22;20026;-67
2023/07/21 12:58:00;;;;;;;12.35;5.03;;;;;;;;;;6306235;22;20007;-67
2023/07/21 13:00:26;;;;;;;12.45;5.32;;;;;;;;;;6149968;22;20063;-66
2023/07/21 13:02:52;;;;;;;11.18;4.43;;;;;;;;;;6307074;22;20015;-66
2023/07/21 13:05:18;;;;;;;13.10;4.60;;;;;;;;;;6306610;22;20483;-67
2023/07/21 13:07:46;;;;;;;8.93;4.18;;;;;;;;;;6279373;22;20100;-66
2023/07/21 13:10:12;;;;;;;9.48;4.55;;;;;;;;;;6150023;22;20008;-67
2023/07/21 13:12:38;;;;;;;9.07;4.40;;;;;;;;;;6306069;22;20043;-67
2023/07/21 13:15:04;;;;;;;13.38;4.90;;;;;;;;;;6307390;22;20002;-65
2023/07/21 13:17:30;;;;;;;9.15;4.15;;;;;;;;;;6307231;22;20007;-67
2023/07/21 13:19:56;;;;;;;12.00;4.88;;;;;;;;;;6150645;22;20428;-66
2023/07/21 13:22:22;;;;;;;10.60;4.63;;;;;;;;;;6151109;22;20143;-68
2023/07/21 13:24:48;;;;;;;9.77;4.65;;;;;;;;;;6150198;23;20006;-67
2023/07/21 13:27:14;;;;;;;9.93;4.82;;;;;;;;;;6306125;22;20061;-68
2023/07/21 13:29:40;;;;;;;7.15;4.30;;;;;;;;;;6150235;22;20428;-68
2023/07/21 13:32:06;;;;;;;9.55;5.05;;;;;;;;;;6150028;22;20013;-68
2023/07/21 13:34:32;;;;;;;10.27;4.90;;;;;;;;;;6150233;23;20002;-68
2023/07/21 13:36:58;;;;;;;11.75;4.90;;;;;;;;;;6306209;22;20065;-68
2023/07/21 13:39:24;;;;;;;14.82;4.60;;;;;;;;;;6278712;22;20001;-68
2023/07/21 13:41:50;;;;;;;13.65;4.82;;;;;;;;;;6148562;23;20018;-67
2023/07/21 13:44:16;;;;;;;8.02;4.70;;;;;;;;;;6149453;23;20009;-67
2023/07/21 13:46:42;;;;;;;15.60;4.97;;;;;;;;;;6305788;22;20094;-67
2023/07/21 13:49:08;;;;;;;13.80;4.95;;;;;;;;;;6149250;22;20032;-67
2023/07/21 13:51:34;;;;;;;11.23;4.25;;;;;;;;;;6304912;22;20086;-67
2023/07/21 13:54:00;;;;;;;11.18;4.43;;;;;;;;;;6304922;22;20434;-67
2023/07/21 13:56:26;;;;;;;10.82;4.50;;;;;;;;;;6277955;22;20337;-67
2023/07/21 13:58:53;;;;;;;9.15;4.47;;;;;;;;;;6305695;22;20076;-69
2023/07/21 14:01:19;;;;;;;10.30;4.63;;;;;;;;;;6304320;22;20453;-68
2023/07/21 14:03:46;;;;;;;8.52;4.55;;;;;;;;;;6306521;22;20003;-67
2023/07/21 14:06:16;;;;;;;9.32;4.80;;;;;;;;;;6151033;22;20045;-66
2023/07/21 14:08:43;;;;;;;11.60;4.75;;;;;;;;;;6151496;23;20023;-66
2023/07/21 14:11:08;;;;;;;12.63;4.40;;;;;;;;;;6151207;23;20024;-67
2023/07/21 14:13:34;;;;;;;8.27;4.35;;;;;;;;;;6150935;22;20436;-67
2023/07/21 14:16:00;;;;;;;11.55;4.38;;;;;;;;;;6150845;22;19998;-66
2023/07/21 14:18:26;;;;;;;9.13;4.15;;;;;;;;;;6149574;23;20317;-68
2023/07/21 14:20:52;;;;;;;7.50;4.35;;;;;;;;;;6306156;22;19999;-67
2023/07/21 14:23:19;;;;;;;10.82;4.43;;;;;;;;;;6252518;22;20009;-68
2023/07/21 14:25:45;;;;;;;10.38;5.47;;;;;;;;;;6149828;22;20085;-69
2023/07/21 14:28:12;;;;;;;10.18;4.40;;;;;;;;;;6149829;23;20009;-67
2023/07/21 14:30:38;;;;;;;10.23;4.72;;;;;;;;;;6305685;22;20056;-67
2023/07/21 14:33:03;;;;;;;7.82;4.97;;;;;;;;;;6305794;22;20345;-67
2023/07/21 14:35:29;;;;;;;11.00;5.30;;;;;;;;;;6305642;22;20003;-68
2023/07/21 14:37:55;;;;;;;10.82;5.13;;;;;;;;;;6305787;22;20112;-68
2023/07/21 14:40:21;;;;;;;8.77;4.68;;;;;;;;;;6150450;22;20006;-68
2023/07/21 14:42:47;;;;;;;11.55;5.05;;;;;;;;;;6305883;22;20330;-67